LFRULFRO

Guest
Details From LFRU - Morlaix Ploujean
To LFRO - Lannion
Flight Number -
Tags generated
Created
Modified
Stats Distance 20 nm / 36 km
Max Altitude 1,900 ft / 579 m
Waypoints 3
Social Downloads 1
Likes 0
Share VATSIM

Download

Looking for another format? Having issues loading an existing format? Contact us
Advertisement - Login to hide

Notes

Basic altitude profile: - Ascent Rate: 2500ft/min - Ascent Speed: 250kts - Cruise Altitude: 35000ft - Cruise Speed: 420kts - Descent Rate: 1500ft/min - Descent Speed: 250kts

Route

LFRU SOPEX LFRO

ID Type Via Altitude Latitude Longitude Leg Dist Tot Dist Heading (true) Name
O LFRU APT - 0 ft / 0 m 48.60324˚ -3.81586˚ - 0 nm - Morlaix Ploujean
SOPEX FIX - 1,900 ft / 579 m 48.61333˚ -3.55000˚ 10 nm 10 nm 87° / 87° -
O LFRO APT - 0 ft / 0 m 48.75431˚ -3.47175˚ 9 nm 19 nm 20° / 20° Lannion

Altitude Profile

Advertisement - Login to hide

LFRU

Details ICAO LFRU (MXN)
Name Morlaix Ploujean
Region France
Timezone Europe/Paris (UTC+1.0)
Stats Elevation 277 ft / 84 m (AMSL)
Location 48.603238° -3.815856°
Runways 1
Magnetic Variation 1.388° W

METAR

LFRU 111800Z AUTO 35011KT 9999 BKN039 BKN045 05/M00 Q0996

Decode

TAF

Not found

Departure Runways

ID Width Length Bearing (true) Bearing (mag) Surface Threshold Offset Overrun Length
04 121 ft / 37 m 5,299 ft / 1,615 m 40.00° 41.39° Asphalt 459 ft / 140 m 0 ft / 0 m
22 121 ft / 37 m 5,299 ft / 1,615 m 220.01° 221.40° Asphalt 0 ft / 0 m 0 ft / 0 m

LFRO

Details ICAO LFRO (LAI)
Name Lannion
Region France
Timezone Europe/Paris (UTC+1.0)
Stats Elevation 291 ft / 89 m (AMSL)
Location 48.754309° -3.471747°
Runways 1
Magnetic Variation 1.287° W

METAR

LFRO 111900Z AUTO 33007KT 9999 FEW035 05/M01 Q0998 NOSIG

Decode

TAF

TAF LFRO 111700Z 1118/1218 34014G25KT 9999 SCT029 BKN040 TEMPO 1212/1215 SHRA

Decode

Destination Runways

ID Width Length Bearing (true) Bearing (mag) Surface Threshold Offset Overrun Length
11 148 ft / 45 m 5,547 ft / 1,691 m 107.61° 108.90° Asphalt 755 ft / 230 m 0 ft / 0 m
29 148 ft / 45 m 5,547 ft / 1,691 m 287.62° 288.91° Asphalt 591 ft / 180 m 0 ft / 0 m

Approach Navaids

Runway Type Ident Frequency Range Bearing (true) Bearing (mag) Slope Elevation
11 Glidescope LN 109.50 MHz 10 nm / 19 km 107.61° 108.90° 3.00° 292 ft / 89 m (AMSL)
29 Localiser LN 110.35 MHz 18 nm / 33 km 287.64° 288.93° - 291 ft / 89 m (AMSL)
29 Glidescope LN 110.35 MHz 10 nm / 19 km 287.61° 288.90° 3.00° 291 ft / 89 m (AMSL)
29 DME LN 110.35 MHz 18 nm / 33 km - - - 291 ft / 89 m (AMSL)